createdAt,value
2019-04-26T00:01:42.435Z,44.20
2019-04-26T00:04:10.226Z,44.20
2019-04-26T00:06:36.471Z,44.30
2019-04-26T00:09:20.580Z,44.10
2019-04-26T00:11:51.046Z,44.10
2019-04-26T00:14:35.799Z,44.30
2019-04-26T00:17:06.683Z,44.20
2019-04-26T00:19:33.146Z,44.10
2019-04-26T00:21:59.746Z,44.00
2019-04-26T00:24:28.483Z,44.10
2019-04-26T00:26:54.235Z,44.10
2019-04-26T00:29:21.151Z,43.90
2019-04-26T00:31:47.343Z,43.80
2019-04-26T00:34:13.619Z,43.70
2019-04-26T00:36:39.800Z,43.90
2019-04-26T00:39:05.951Z,43.90
2019-04-26T00:41:32.007Z,43.90
2019-04-26T00:43:58.267Z,44.10
2019-04-26T00:46:26.947Z,44.20
2019-04-26T00:48:55.111Z,44.60
2019-04-26T00:51:21.360Z,44.70
2019-04-26T00:53:48.627Z,44.70
2019-04-26T00:56:15.910Z,45.00
2019-04-26T00:58:42.244Z,45.10
2019-04-26T01:01:08.900Z,45.00
2019-04-26T01:03:34.973Z,45.00
2019-04-26T01:06:02.936Z,45.00
2019-04-26T01:08:28.991Z,45.40
2019-04-26T01:10:55.040Z,45.50
2019-04-26T01:13:22.008Z,45.70
2019-04-26T01:15:48.391Z,45.90
2019-04-26T01:18:18.208Z,45.60
2019-04-26T01:20:46.760Z,45.60
2019-04-26T01:23:17.428Z,45.50
2019-04-26T01:25:59.331Z,45.60
2019-04-26T01:28:31.814Z,46.40
2019-04-26T01:31:00.578Z,46.00
2019-04-26T01:33:26.944Z,46.00
2019-04-26T01:35:53.295Z,45.80
2019-04-26T01:38:20.716Z,46.10
2019-04-26T01:40:49.624Z,46.20
2019-04-26T01:43:17.791Z,46.80
2019-04-26T01:45:58.640Z,46.80
2019-04-26T01:48:44.784Z,46.80
2019-04-26T01:51:14.724Z,46.60
2019-04-26T01:53:44.104Z,46.40
2019-04-26T01:56:11.764Z,46.30
2019-04-26T01:58:37.848Z,46.60
2019-04-26T02:01:05.924Z,46.90
2019-04-26T02:03:31.985Z,47.00
2019-04-26T02:05:58.055Z,46.90
2019-04-26T02:08:24.518Z,47.00
2019-04-26T02:10:50.792Z,46.90
2019-04-26T02:13:17.264Z,47.00
2019-04-26T02:15:43.311Z,47.00
2019-04-26T02:18:09.574Z,47.40
2019-04-26T02:20:48.507Z,47.00
2019-04-26T02:23:34.421Z,47.00
2019-04-26T02:26:19.563Z,46.90
2019-04-26T02:28:46.831Z,47.20
2019-04-26T02:31:12.995Z,47.30
2019-04-26T02:33:39.049Z,48.00
2019-04-26T02:36:05.122Z,47.30
2019-04-26T02:38:32.919Z,47.60
2019-04-26T02:40:59.340Z,47.90
2019-04-26T02:43:27.870Z,47.70
2019-04-26T02:45:59.531Z,47.60
2019-04-26T02:48:40.561Z,47.90
2019-04-26T02:51:32.893Z,47.90
2019-04-26T02:54:03.279Z,47.90
2019-04-26T02:56:36.237Z,48.10
2019-04-26T02:59:32.486Z,48.10
2019-04-26T03:02:02.708Z,48.90
2019-04-26T03:04:30.464Z,48.20
2019-04-26T03:07:03.333Z,48.20
2019-04-26T03:09:33.340Z,48.30
2019-04-26T03:12:03.778Z,48.50
2019-04-26T03:14:37.084Z,48.60
2019-04-26T03:17:18.436Z,48.50
2019-04-26T03:19:53.252Z,48.60
2019-04-26T03:22:56.620Z,48.70
2019-04-26T03:25:29.128Z,48.90
2019-04-26T03:28:05.260Z,49.30
2019-04-26T03:30:44.481Z,49.50
2019-04-26T03:33:16.269Z,49.70
2019-04-26T03:35:59.913Z,50.10
2019-04-26T03:38:57.618Z,50.30
2019-04-26T03:41:29.376Z,50.20
2019-04-26T03:44:16.250Z,50.50
2019-04-26T03:46:46.213Z,50.60
2019-04-26T03:49:39.877Z,50.40
2019-04-26T03:52:22.733Z,50.40
2019-04-26T03:54:58.812Z,50.50
2019-04-26T03:57:51.256Z,50.60
2019-04-26T04:00:21.121Z,50.70
2019-04-26T04:03:04.776Z,50.70
2019-04-26T04:05:44.262Z,50.90
2019-04-26T04:08:14.512Z,50.90
2019-04-26T04:10:56.548Z,50.90
2019-04-26T04:13:38.859Z,51.30
2019-04-26T04:16:21.160Z,51.30
2019-04-26T04:18:53.906Z,51.60
2019-04-26T04:21:45.091Z,52.10
2019-04-26T04:24:15.192Z,52.30
2019-04-26T04:27:09.357Z,52.40
2019-04-26T04:29:49.004Z,52.40
2019-04-26T04:32:40.457Z,52.60
2019-04-26T04:35:10.136Z,52.60
2019-04-26T04:37:56.380Z,52.90
2019-04-26T04:40:20.191Z,53.30
2019-04-26T04:43:06.863Z,53.70
2019-04-26T04:46:12.212Z,53.80
2019-04-26T04:49:07.680Z,53.80
2019-04-26T04:51:44.364Z,54.70
2019-04-26T04:54:23.109Z,55.30
2019-04-26T04:56:53.048Z,56.30
2019-04-26T04:59:41.742Z,56.30
2019-04-26T05:02:22.883Z,56.80
2019-04-26T05:05:05.806Z,57.30
2019-04-26T05:08:05.241Z,57.30
2019-04-26T05:10:27.363Z,57.90
2019-04-26T05:12:58.405Z,59.10
2019-04-26T05:15:44.994Z,59.50
2019-04-26T05:18:26.393Z,60.20
2019-04-26T05:21:11.063Z,60.40
2019-04-26T05:23:57.907Z,60.70
2019-04-26T05:26:41.019Z,61.20
2019-04-26T05:29:27.520Z,61.50
2019-04-26T05:32:32.120Z,62.90
2019-04-26T05:35:41.968Z,63.70
2019-04-26T05:38:18.623Z,63.90
2019-04-26T05:41:01.641Z,63.30
2019-04-26T05:43:50.305Z,63.40
2019-04-26T05:46:48.032Z,63.60
2019-04-26T05:49:47.116Z,64.00
2019-04-26T05:52:47.255Z,64.20
2019-04-26T05:55:35.595Z,64.80
2019-04-26T05:58:32.388Z,65.40
2019-04-26T06:01:31.433Z,65.10
2019-04-26T06:04:21.656Z,65.40
2019-04-26T06:07:05.571Z,66.40
2019-04-26T06:09:54.568Z,66.50
2019-04-26T06:12:35.619Z,66.20
2019-04-26T06:15:07.404Z,65.60
2019-04-26T06:17:57.656Z,64.00
2019-04-26T06:20:33.443Z,63.90
2019-04-26T06:23:21.503Z,63.10
2019-04-26T06:26:01.392Z,63.00
2019-04-26T06:28:52.929Z,62.80
2019-04-26T06:31:29.048Z,63.50
2019-04-26T06:34:10.819Z,62.40
2019-04-26T06:36:45.572Z,63.10
2019-04-26T06:39:29.503Z,62.90
2019-04-26T06:42:06.575Z,62.60
2019-04-26T06:44:50.664Z,62.70
2019-04-26T06:47:40.871Z,63.10
2019-04-26T06:50:24.439Z,63.30
2019-04-26T06:53:00.074Z,63.10
2019-04-26T06:55:36.845Z,63.60
2019-04-26T06:58:36.763Z,62.60
2019-04-26T07:01:08.543Z,62.60
2019-04-26T07:04:10.595Z,62.70
2019-04-26T07:07:15.971Z,62.70
2019-04-26T07:09:59.092Z,63.30
2019-04-26T07:12:37.503Z,62.80
2019-04-26T07:15:28.859Z,63.40
2019-04-26T07:18:15.715Z,63.90
2019-04-26T07:20:50.543Z,64.60
2019-04-26T07:23:47.171Z,64.80
2019-04-26T07:26:33.692Z,64.30
2019-04-26T07:29:14.760Z,64.20
2019-04-26T07:31:53.091Z,63.10
2019-04-26T07:34:58.334Z,62.90
2019-04-26T07:37:43.034Z,60.80
2019-04-26T07:40:43.744Z,59.70
2019-04-26T07:43:48.443Z,59.70
2019-04-26T07:46:21.595Z,59.00
2019-04-26T07:49:10.262Z,58.90
2019-04-26T07:51:52.564Z,59.10
2019-04-26T07:54:31.523Z,58.80
2019-04-26T07:57:40.224Z,58.80
2019-04-26T08:00:19.787Z,59.20
2019-04-26T08:03:08.760Z,58.60
2019-04-26T08:05:43.432Z,58.70
2019-04-26T08:08:12.995Z,58.60
2019-04-26T08:10:42.862Z,57.80
2019-04-26T08:13:17.774Z,58.20
2019-04-26T08:15:49.543Z,58.20
2019-04-26T08:18:21.316Z,58.30
2019-04-26T08:20:56.214Z,56.60
2019-04-26T08:23:38.483Z,56.40
2019-04-26T08:25:57.848Z,57.30
2019-04-26T08:28:26.699Z,56.00
2019-04-26T08:30:55.162Z,56.30
2019-04-26T08:33:26.444Z,57.30
2019-04-26T08:35:55.364Z,57.00
2019-04-26T08:38:23.232Z,57.30
2019-04-26T08:40:50.947Z,57.00
2019-04-26T08:43:31.891Z,56.60
2019-04-26T08:46:10.070Z,56.10
2019-04-26T08:48:47.856Z,55.40
2019-04-26T08:51:21.803Z,55.90
2019-04-26T08:53:50.927Z,55.80
2019-04-26T08:56:20.779Z,55.80
2019-04-26T08:58:50.677Z,56.30
2019-04-26T09:01:21.043Z,56.80
2019-04-26T09:03:52.218Z,58.10
2019-04-26T09:06:23.295Z,56.80
2019-04-26T09:08:52.947Z,55.70
2019-04-26T09:11:26.018Z,55.40
2019-04-26T09:13:50.575Z,55.70
2019-04-26T09:16:18.089Z,56.50
2019-04-26T09:18:52.949Z,56.10
2019-04-26T09:21:13.224Z,55.30
2019-04-26T09:23:59.107Z,55.00
2019-04-26T09:26:46.627Z,54.20
2019-04-26T09:29:17.817Z,55.00
2019-04-26T09:31:54.494Z,54.30
2019-04-26T09:34:42.705Z,53.20
2019-04-26T09:37:06.583Z,54.00
2019-04-26T09:39:32.639Z,53.90
2019-04-26T09:42:09.617Z,53.00
2019-04-26T09:44:41.496Z,53.30
2019-04-26T09:47:20.412Z,53.00
2019-04-26T09:49:48.375Z,53.50
2019-04-26T09:52:16.352Z,53.30
2019-04-26T09:54:42.396Z,53.70
2019-04-26T09:57:08.463Z,53.70
2019-04-26T09:59:36.320Z,53.30
2019-04-26T10:02:02.584Z,53.40
2019-04-26T10:04:28.668Z,53.10
2019-04-26T10:06:54.735Z,52.30
2019-04-26T10:09:22.753Z,53.20
2019-04-26T10:11:50.956Z,54.20
2019-04-26T10:14:18.907Z,53.80
2019-04-26T10:17:02.055Z,52.90
2019-04-26T10:19:31.678Z,53.10
2019-04-26T10:21:57.959Z,53.10
2019-04-26T10:24:24.028Z,53.60
2019-04-26T10:26:50.079Z,53.00
2019-04-26T10:29:16.132Z,53.50
2019-04-26T10:31:42.195Z,53.30
2019-04-26T10:34:11.964Z,53.10
2019-04-26T10:36:36.215Z,52.70
2019-04-26T10:39:04.681Z,52.80
2019-04-26T10:41:30.731Z,53.50
2019-04-26T10:43:56.791Z,53.50
2019-04-26T10:46:24.474Z,53.00
2019-04-26T10:48:51.331Z,52.30
2019-04-26T10:51:19.434Z,53.00
2019-04-26T10:53:53.134Z,53.90
2019-04-26T10:56:24.228Z,53.80
2019-04-26T10:58:56.152Z,54.60
2019-04-26T11:01:22.195Z,54.80
2019-04-26T11:03:48.260Z,53.30
2019-04-26T11:06:14.618Z,53.20
2019-04-26T11:08:40.680Z,52.40
2019-04-26T11:11:07.340Z,53.50
2019-04-26T11:13:33.387Z,53.50
2019-04-26T11:16:02.543Z,53.50
2019-04-26T11:18:28.583Z,52.90
2019-04-26T11:20:54.874Z,53.90
2019-04-26T11:23:20.999Z,53.20
2019-04-26T11:25:47.079Z,53.80
2019-04-26T11:28:13.127Z,53.90
2019-04-26T11:30:39.195Z,55.10
2019-04-26T11:33:07.337Z,54.50
2019-04-26T11:35:34.792Z,54.70
2019-04-26T11:38:01.173Z,54.50
2019-04-26T11:40:27.596Z,54.60
2019-04-26T11:42:53.647Z,54.30
2019-04-26T11:45:19.698Z,55.00
2019-04-26T11:47:56.021Z,55.20
2019-04-26T11:50:16.225Z,54.40
2019-04-26T11:52:41.779Z,54.60
2019-04-26T11:55:08.235Z,54.70
2019-04-26T11:57:34.287Z,53.50
2019-04-26T12:00:01.440Z,54.30
2019-04-26T12:02:30.239Z,54.70
2019-04-26T12:05:03.993Z,54.40
2019-04-26T12:07:31.971Z,54.30
2019-04-26T12:10:09.227Z,54.20
2019-04-26T12:12:33.659Z,53.80
2019-04-26T12:15:03.698Z,52.90
2019-04-26T12:17:31.145Z,52.10
2019-04-26T12:19:55.795Z,52.70
2019-04-26T12:22:21.843Z,52.60
2019-04-26T12:24:47.899Z,52.60
2019-04-26T12:27:14.004Z,52.80
2019-04-26T12:29:40.207Z,53.80
2019-04-26T12:32:06.267Z,52.90
2019-04-26T12:34:32.331Z,51.90
2019-04-26T12:36:58.384Z,50.70
2019-04-26T12:39:24.636Z,51.10
2019-04-26T12:41:50.979Z,51.00
2019-04-26T12:44:17.030Z,51.00
2019-04-26T12:47:03.525Z,48.70
2019-04-26T12:49:27.839Z,47.00
2019-04-26T12:51:53.905Z,46.20
2019-04-26T12:55:36.432Z,45.20
2019-04-26T12:58:02.599Z,47.10
2019-04-26T13:00:33.160Z,46.70
2019-04-26T13:02:58.385Z,47.90
2019-04-26T13:05:24.444Z,46.50
2019-04-26T13:07:52.199Z,46.80
2019-04-26T13:10:22.932Z,47.30
2019-04-26T13:12:59.856Z,47.20
2019-04-26T13:15:52.572Z,46.20
2019-04-26T13:18:18.828Z,47.20
2019-04-26T13:20:44.884Z,48.00
2019-04-26T13:23:10.964Z,47.60
2019-04-26T13:25:40.529Z,47.20
2019-04-26T13:28:04.981Z,48.30
2019-04-26T13:30:33.012Z,49.00
2019-04-26T13:32:59.015Z,49.70
2019-04-26T13:35:25.366Z,49.80
2019-04-26T13:37:51.505Z,50.40
2019-04-26T13:40:17.774Z,50.00
2019-04-26T13:42:47.467Z,49.20
2019-04-26T13:45:17.044Z,50.20
2019-04-26T13:47:44.995Z,51.00
2019-04-26T13:50:22.387Z,51.20
2019-04-26T13:52:47.323Z,51.50
2019-04-26T13:55:13.394Z,50.90
2019-04-26T13:57:40.148Z,49.70
2019-04-26T14:00:11.652Z,50.70
2019-04-26T14:02:37.628Z,50.20
2019-04-26T14:05:04.189Z,50.40
2019-04-26T14:07:30.272Z,50.80
2019-04-26T14:09:56.331Z,51.10
2019-04-26T14:12:22.492Z,51.70
2019-04-26T14:14:48.645Z,52.80
2019-04-26T14:17:14.703Z,52.50
2019-04-26T14:19:40.772Z,53.50
2019-04-26T14:22:08.140Z,52.50
2019-04-26T14:24:36.308Z,53.10
2019-04-26T14:27:04.271Z,53.30
2019-04-26T14:29:32.432Z,53.60
2019-04-26T14:31:58.420Z,53.50
2019-04-26T14:34:24.494Z,54.10
2019-04-26T14:36:50.579Z,54.80
2019-04-26T14:39:19.654Z,55.40
2019-04-26T14:41:44.758Z,56.10
2019-04-26T14:44:15.631Z,56.50
2019-04-26T14:46:48.564Z,56.30
2019-04-26T14:49:06.871Z,56.40
2019-04-26T14:51:32.943Z,56.90
2019-04-26T14:53:58.999Z,56.70
2019-04-26T14:56:29.320Z,57.60
2019-04-26T14:58:53.035Z,57.00
2019-04-26T15:01:21.023Z,56.40
2019-04-26T15:03:57.142Z,55.90
2019-04-26T15:06:23.674Z,56.60
2019-04-26T15:08:49.954Z,56.50
2019-04-26T15:11:18.175Z,56.70
2019-04-26T15:13:44.435Z,56.80
2019-04-26T15:16:12.394Z,56.20
2019-04-26T15:18:38.453Z,56.10
2019-04-26T15:21:04.515Z,56.40
2019-04-26T15:23:30.581Z,56.40
2019-04-26T15:25:58.462Z,57.00
2019-04-26T15:28:24.595Z,56.50
2019-04-26T15:30:52.598Z,56.90
2019-04-26T15:33:18.647Z,57.30
2019-04-26T15:35:45.487Z,57.50
2019-04-26T15:38:11.547Z,57.50
2019-04-26T15:40:54.986Z,57.60
2019-04-26T15:43:28.704Z,58.00
2019-04-26T15:46:02.348Z,58.10
2019-04-26T15:48:36.255Z,57.40
2019-04-26T15:51:02.868Z,56.60
2019-04-26T15:53:28.923Z,56.60
2019-04-26T15:55:54.991Z,56.70
2019-04-26T15:58:21.237Z,56.30
2019-04-26T16:00:47.379Z,56.20
2019-04-26T16:03:13.428Z,55.10
2019-04-26T16:05:40.388Z,54.40
2019-04-26T16:08:06.439Z,53.50
2019-04-26T16:10:34.645Z,52.90
2019-04-26T16:13:15.755Z,52.90
2019-04-26T16:15:30.147Z,52.70
2019-04-26T16:17:56.195Z,52.80
2019-04-26T16:20:22.247Z,53.00
2019-04-26T16:22:49.207Z,53.60
2019-04-26T16:25:15.471Z,53.90
2019-04-26T16:27:43.018Z,54.30
2019-04-26T16:30:17.290Z,55.20
2019-04-26T16:32:48.223Z,55.60
2019-04-26T16:35:14.271Z,55.60
2019-04-26T16:37:40.348Z,55.50
2019-04-26T16:40:07.743Z,55.40
2019-04-26T16:42:34.889Z,55.40
2019-04-26T16:45:04.601Z,54.90
2019-04-26T16:47:28.906Z,54.10
2019-04-26T16:49:55.112Z,53.90
2019-04-26T16:52:21.219Z,53.90
2019-04-26T16:54:47.372Z,53.90
2019-04-26T16:57:13.430Z,54.10
2019-04-26T16:59:47.450Z,54.10
2019-04-26T17:02:07.460Z,54.30
2019-04-26T17:04:36.164Z,54.50
2019-04-26T17:07:02.867Z,54.80
2019-04-26T17:09:52.305Z,55.90
2019-04-26T17:11:57.574Z,55.70
2019-04-26T17:14:24.601Z,55.80
2019-04-26T17:16:53.039Z,56.40
2019-04-26T17:19:19.988Z,56.40
2019-04-26T17:21:48.119Z,56.00
2019-04-26T17:24:16.096Z,56.40
2019-04-26T17:26:49.629Z,56.30
2019-04-26T17:29:15.703Z,56.60
2019-04-26T17:31:43.134Z,57.20
2019-04-26T17:34:09.403Z,57.70
2019-04-26T17:36:35.455Z,58.30
2019-04-26T17:39:01.508Z,59.10
2019-04-26T17:41:27.562Z,59.70
2019-04-26T17:44:06.170Z,61.50
2019-04-26T17:46:21.721Z,62.50
2019-04-26T17:48:49.391Z,63.50
2019-04-26T17:51:18.977Z,63.90
2019-04-26T17:53:44.050Z,64.70
2019-04-26T17:56:13.445Z,65.50
2019-04-26T17:58:51.640Z,66.30
2019-04-26T18:01:07.652Z,67.00
2019-04-26T18:03:33.746Z,67.80
2019-04-26T18:06:01.048Z,67.90
2019-04-26T18:08:41.082Z,68.80
2019-04-26T18:10:55.345Z,69.40
2019-04-26T18:13:21.403Z,70.00
2019-04-26T18:15:48.624Z,70.80
2019-04-26T18:18:34.166Z,71.20
2019-04-26T18:21:05.226Z,71.90
2019-04-26T18:23:31.676Z,73.30
2019-04-26T18:25:57.764Z,73.90
2019-04-26T18:28:23.820Z,75.10
2019-04-26T18:30:49.888Z,76.60
2019-04-26T18:33:17.485Z,77.80
2019-04-26T18:35:48.846Z,78.50
2019-04-26T18:38:12.516Z,81.30
2019-04-26T18:40:58.924Z,81.10
2019-04-26T18:43:07.486Z,81.80
2019-04-26T18:45:34.331Z,83.50
2019-04-26T18:48:01.153Z,83.10
2019-04-26T18:50:28.455Z,83.50
2019-04-26T18:53:13.939Z,83.40
2019-04-26T18:55:40.515Z,83.70
2019-04-26T18:58:06.561Z,84.10
2019-04-26T19:00:34.614Z,84.00
2019-04-26T19:03:00.668Z,83.70
2019-04-26T19:05:29.847Z,84.20
2019-04-26T19:07:54.690Z,84.50
2019-04-26T19:10:21.607Z,84.40
2019-04-26T19:12:48.987Z,84.50
2019-04-26T19:15:37.004Z,84.50
2019-04-26T19:18:04.260Z,84.80
2019-04-26T19:20:32.364Z,85.20
2019-04-26T19:23:00.133Z,85.90
2019-04-26T19:25:29.991Z,86.30
2019-04-26T19:27:54.242Z,86.80
2019-04-26T19:30:21.704Z,86.80
2019-04-26T19:32:47.950Z,87.00
2019-04-26T19:35:14.505Z,87.40
2019-04-26T19:37:40.799Z,87.70
2019-04-26T19:40:08.882Z,88.20
2019-04-26T19:42:35.063Z,88.60
2019-04-26T19:45:11.777Z,88.90
2019-04-26T19:47:35.461Z,89.40
2019-04-26T19:50:15.606Z,89.50
2019-04-26T19:52:45.034Z,90.10
2019-04-26T19:55:19.307Z,90.30
2019-04-26T19:58:03.759Z,90.60
2019-04-26T20:00:32.009Z,90.60
2019-04-26T20:02:58.071Z,90.80
2019-04-26T20:05:24.221Z,90.90
2019-04-26T20:07:51.866Z,91.10
2019-04-26T20:10:18.146Z,91.20
2019-04-26T20:12:44.499Z,91.40
2019-04-26T20:15:25.144Z,91.70
2019-04-26T20:17:39.423Z,91.70
2019-04-26T20:20:16.847Z,91.90
2019-04-26T20:22:33.431Z,92.00
2019-04-26T20:24:59.528Z,91.90
2019-04-26T20:27:27.856Z,92.00
2019-04-26T20:29:53.544Z,92.10
2019-04-26T20:32:24.159Z,92.20
2019-04-26T20:35:08.920Z,92.30
2019-04-26T20:37:34.984Z,92.40
2019-04-26T20:40:16.175Z,92.40
2019-04-26T20:42:29.011Z,92.50
2019-04-26T20:44:55.111Z,92.70
2019-04-26T20:47:21.677Z,92.60
2019-04-26T20:49:54.126Z,92.60
2019-04-26T20:52:16.454Z,92.60
2019-04-26T20:54:46.546Z,92.70
2019-04-26T20:57:12.409Z,92.80
2019-04-26T20:59:38.580Z,92.90
2019-04-26T21:02:08.017Z,92.90
2019-04-26T21:04:38.054Z,93.10
2019-04-26T21:07:02.283Z,93.10
2019-04-26T21:09:28.547Z,93.10
2019-04-26T21:11:54.611Z,93.20
2019-04-26T21:14:21.353Z,93.30
2019-04-26T21:16:49.440Z,93.30
2019-04-26T21:19:19.120Z,93.40
2019-04-26T21:21:48.339Z,93.50
2019-04-26T21:24:14.894Z,93.60
2019-04-26T21:26:51.409Z,93.60
2019-04-26T21:29:35.006Z,93.70
2019-04-26T21:32:11.567Z,93.70
2019-04-26T21:34:39.629Z,93.80
2019-04-26T21:37:22.764Z,93.90
2019-04-26T21:39:56.578Z,94.00
2019-04-26T21:42:25.635Z,93.50
2019-04-26T21:44:53.244Z,94.00
2019-04-26T21:47:19.572Z,94.00
2019-04-26T21:49:45.616Z,93.90
2019-04-26T21:52:13.518Z,93.90
2019-04-26T21:54:39.715Z,93.80
2019-04-26T21:57:05.772Z,94.10
2019-04-26T21:59:35.116Z,93.70
2019-04-26T22:01:59.800Z,93.70
2019-04-26T22:04:28.919Z,93.70
2019-04-26T22:06:55.652Z,93.80
2019-04-26T22:09:28.460Z,93.90
2019-04-26T22:12:01.269Z,93.90
2019-04-26T22:14:34.076Z,94.00
2019-04-26T22:17:14.720Z,94.00
2019-04-26T22:19:49.099Z,93.80
2019-04-26T22:22:37.493Z,93.80
2019-04-26T22:25:06.889Z,94.00
2019-04-26T22:27:33.157Z,93.90
2019-04-26T22:30:03.169Z,93.90
2019-04-26T22:32:29.188Z,94.00
2019-04-26T22:34:57.332Z,94.30
2019-04-26T22:37:29.992Z,94.50
2019-04-26T22:39:54.211Z,94.80
2019-04-26T22:42:20.819Z,95.60
2019-04-26T22:44:48.953Z,94.70
2019-04-26T22:47:16.899Z,95.00
2019-04-26T22:49:45.199Z,95.10
2019-04-26T22:52:15.738Z,95.10
2019-04-26T22:54:42.851Z,95.10
2019-04-26T22:57:08.100Z,95.10
2019-04-26T22:59:38.219Z,95.00
2019-04-26T23:02:04.175Z,94.90
2019-04-26T23:04:30.244Z,94.90
2019-04-26T23:06:56.599Z,94.70
2019-04-26T23:09:23.296Z,94.60
2019-04-26T23:12:06.331Z,94.70
2019-04-26T23:14:37.840Z,94.60
2019-04-26T23:17:14.760Z,94.60
2019-04-26T23:19:43.656Z,94.60
2019-04-26T23:22:09.943Z,94.70
2019-04-26T23:24:36.011Z,94.60
2019-04-26T23:27:03.842Z,94.90
2019-04-26T23:29:30.024Z,95.00
2019-04-26T23:31:56.076Z,95.00
2019-04-26T23:34:22.829Z,95.10
2019-04-26T23:36:50.290Z,95.20
2019-04-26T23:39:16.441Z,95.10
2019-04-26T23:41:44.172Z,95.10
2019-04-26T23:44:10.463Z,95.20
2019-04-26T23:46:36.519Z,95.20
2019-04-26T23:49:03.066Z,95.30
2019-04-26T23:51:29.206Z,95.20
2019-04-26T23:53:57.747Z,95.30
2019-04-26T23:56:25.234Z,95.30
2019-04-26T23:58:51.214Z,95.40
